createdAt,value
2023-04-18T00:00:30.366Z,13.00
2023-04-18T00:03:00.212Z,12.23
2023-04-18T00:05:30.165Z,12.17
2023-04-18T00:07:58.143Z,13.20
2023-04-18T00:10:26.375Z,13.80
2023-04-18T00:12:54.659Z,13.03
2023-04-18T00:15:22.644Z,13.27
2023-04-18T00:17:52.347Z,13.17
2023-04-18T00:20:20.566Z,12.53
2023-04-18T00:22:48.555Z,12.80
2023-04-18T00:25:16.514Z,13.43
2023-04-18T00:27:44.481Z,13.73
2023-04-18T00:30:13.203Z,13.47
2023-04-18T00:32:42.266Z,14.00
2023-04-18T00:35:11.663Z,13.97
2023-04-18T00:37:39.702Z,14.17
2023-04-18T00:40:08.863Z,14.97
2023-04-18T00:42:36.845Z,12.70
2023-04-18T00:45:05.382Z,13.47
2023-04-18T00:47:33.427Z,14.90
2023-04-18T00:50:01.648Z,13.33
2023-04-18T00:52:33.718Z,12.70
2023-04-18T00:55:01.882Z,13.17
2023-04-18T00:57:30.949Z,12.00
2023-04-18T01:00:00.442Z,13.80
2023-04-18T01:02:29.694Z,12.93
2023-04-18T01:04:58.531Z,12.17
2023-04-18T01:07:26.947Z,12.97
2023-04-18T01:09:56.356Z,12.63
2023-04-18T01:12:24.364Z,12.20
2023-04-18T01:14:52.333Z,11.63
2023-04-18T01:17:20.502Z,11.30
2023-04-18T01:19:48.523Z,11.40
2023-04-18T01:22:18.266Z,11.63
2023-04-18T01:24:47.647Z,13.30
2023-04-18T01:27:15.635Z,12.73
2023-04-18T01:29:43.716Z,11.67
2023-04-18T01:32:11.723Z,11.17
2023-04-18T01:34:39.699Z,11.87
2023-04-18T01:37:07.680Z,11.40
2023-04-18T01:39:35.773Z,12.70
2023-04-18T01:42:05.403Z,12.23
2023-04-18T01:44:33.361Z,12.13
2023-04-18T01:47:01.411Z,11.47
2023-04-18T01:49:29.470Z,11.97
2023-04-18T01:51:57.437Z,12.30
2023-04-18T01:54:25.471Z,13.43
2023-04-18T01:56:53.443Z,12.60
2023-04-18T01:59:22.803Z,13.77
2023-04-18T02:01:51.085Z,13.63
2023-04-18T02:04:19.098Z,12.77
2023-04-18T02:06:47.170Z,13.53
2023-04-18T02:09:15.242Z,13.90
2023-04-18T02:11:43.432Z,14.13
2023-04-18T02:14:11.737Z,14.47
2023-04-18T02:16:41.428Z,13.77
2023-04-18T02:19:09.566Z,14.27
2023-04-18T02:21:37.769Z,16.10
2023-04-18T02:24:06.437Z,17.17
2023-04-18T02:26:34.443Z,16.80
2023-04-18T02:29:02.468Z,17.33
2023-04-18T02:31:30.739Z,18.00
2023-04-18T02:34:00.112Z,18.53
2023-04-18T02:36:28.571Z,18.00
2023-04-18T02:38:56.581Z,19.30
2023-04-18T02:41:24.904Z,19.90
2023-04-18T02:43:52.983Z,19.13
2023-04-18T02:46:21.249Z,17.77
2023-04-18T02:48:49.423Z,20.27
2023-04-18T02:51:19.915Z,19.10
2023-04-18T02:53:48.285Z,23.23
2023-04-18T02:56:18.827Z,19.50
2023-04-18T02:58:46.838Z,18.40
2023-04-18T03:01:14.867Z,20.23
2023-04-18T03:03:42.851Z,18.97
2023-04-18T03:06:11.118Z,17.83
2023-04-18T03:08:43.100Z,17.97
2023-04-18T03:11:11.087Z,18.33
2023-04-18T03:13:39.110Z,19.47
2023-04-18T03:16:07.733Z,18.80
2023-04-18T03:18:35.828Z,18.90
2023-04-18T03:21:03.819Z,19.23
2023-04-18T03:23:31.801Z,18.93
2023-04-18T03:26:01.178Z,20.97
2023-04-18T03:28:29.133Z,22.30
2023-04-18T03:30:57.150Z,21.13
2023-04-18T03:33:25.250Z,22.03
2023-04-18T03:35:53.388Z,21.10
2023-04-18T03:38:21.379Z,22.53
2023-04-18T03:40:49.674Z,22.73
2023-04-18T03:43:20.342Z,23.20
2023-04-18T03:45:48.654Z,21.63
2023-04-18T03:48:16.778Z,21.20
2023-04-18T03:50:44.889Z,20.77
2023-04-18T03:53:12.958Z,21.83
2023-04-18T03:55:40.965Z,23.37
2023-04-18T03:58:09.072Z,19.90
2023-04-18T04:00:38.706Z,21.37
2023-04-18T04:03:09.713Z,23.90
2023-04-18T04:05:37.889Z,20.97
2023-04-18T04:08:06.104Z,20.13
2023-04-18T04:10:34.094Z,22.90
2023-04-18T04:13:02.078Z,18.47
2023-04-18T04:15:30.104Z,20.50
2023-04-18T04:17:59.509Z,20.27
2023-04-18T04:20:27.785Z,18.23
2023-04-18T04:22:56.821Z,18.47
2023-04-18T04:25:28.509Z,19.00
2023-04-18T04:27:56.599Z,18.17
2023-04-18T04:30:24.573Z,19.70
2023-04-18T04:32:55.800Z,16.93
2023-04-18T04:35:28.376Z,17.73
2023-04-18T04:37:56.456Z,18.43
2023-04-18T04:40:25.026Z,18.47
2023-04-18T04:42:58.175Z,19.87
2023-04-18T04:45:28.897Z,16.93
2023-04-18T04:47:57.148Z,17.47
2023-04-18T04:50:26.727Z,18.63
2023-04-18T04:52:54.692Z,17.90
2023-04-18T04:55:22.707Z,17.60
2023-04-18T04:57:50.899Z,16.33
2023-04-18T05:00:21.582Z,16.37
2023-04-18T05:02:50.140Z,17.60
2023-04-18T05:05:18.246Z,17.60
2023-04-18T05:07:47.817Z,17.50
2023-04-18T05:10:15.890Z,17.03
2023-04-18T05:12:44.110Z,18.80
2023-04-18T05:15:13.726Z,18.03
2023-04-18T05:17:41.751Z,17.67
2023-04-18T05:20:11.384Z,21.37
2023-04-18T05:22:39.369Z,17.17
2023-04-18T05:25:09.641Z,16.83
2023-04-18T05:27:37.621Z,19.40
2023-04-18T05:30:06.496Z,18.27
2023-04-18T05:32:34.554Z,17.83
2023-04-18T05:35:02.582Z,22.20
2023-04-18T05:37:30.539Z,20.03
2023-04-18T05:40:00.588Z,19.87
2023-04-18T05:42:30.374Z,20.87
2023-04-18T05:44:58.370Z,20.97
2023-04-18T05:47:28.613Z,20.13
2023-04-18T05:49:56.954Z,20.70
2023-04-18T05:52:26.020Z,19.93
2023-04-18T05:54:54.181Z,21.57
2023-04-18T05:57:22.400Z,18.63
2023-04-18T05:59:51.758Z,19.00
2023-04-18T06:02:19.797Z,18.40
2023-04-18T06:04:48.743Z,18.47
2023-04-18T06:07:17.005Z,19.27
2023-04-18T06:09:49.781Z,19.30
2023-04-18T06:12:17.796Z,19.30
2023-04-18T06:14:45.795Z,18.80
2023-04-18T06:17:16.087Z,19.47
2023-04-18T06:19:44.083Z,17.33
2023-04-18T06:22:12.040Z,17.53
2023-04-18T06:24:39.998Z,18.40
2023-04-18T06:27:12.709Z,18.87
2023-04-18T06:29:45.713Z,17.43
2023-04-18T06:32:15.176Z,17.00
2023-04-18T06:34:43.932Z,17.40
2023-04-18T06:37:12.491Z,15.90
2023-04-18T06:39:40.663Z,17.07
2023-04-18T06:42:08.646Z,19.47
2023-04-18T06:44:36.965Z,16.83
2023-04-18T06:47:05.055Z,16.37
2023-04-18T06:49:37.643Z,16.93
2023-04-18T06:52:08.005Z,18.47
2023-04-18T06:54:35.969Z,16.10
2023-04-18T06:57:06.547Z,16.57
2023-04-18T06:59:35.538Z,18.60
2023-04-18T07:02:03.534Z,16.33
2023-04-18T07:04:31.556Z,22.27
2023-04-18T07:07:01.378Z,15.40
2023-04-18T07:09:29.967Z,16.83
2023-04-18T07:11:58.035Z,16.37
2023-04-18T07:14:27.234Z,14.97
2023-04-18T07:16:55.457Z,15.83
2023-04-18T07:19:23.462Z,15.53
2023-04-18T07:21:53.578Z,15.17
2023-04-18T07:24:24.368Z,17.93
2023-04-18T07:26:54.496Z,16.40
2023-04-18T07:29:23.359Z,17.23
2023-04-18T07:31:51.980Z,14.17
2023-04-18T07:34:20.070Z,14.67
2023-04-18T07:36:50.430Z,15.87
2023-04-18T07:39:18.694Z,14.90
2023-04-18T07:41:48.076Z,13.30
2023-04-18T07:44:16.296Z,13.67
2023-04-18T07:46:44.476Z,13.80
2023-04-18T07:49:12.768Z,13.70
2023-04-18T07:51:41.059Z,13.83
2023-04-18T07:54:11.030Z,14.00
2023-04-18T07:56:39.047Z,12.80
2023-04-18T07:59:08.558Z,12.40
2023-04-18T08:01:36.589Z,11.20
2023-04-18T08:04:04.812Z,10.93
2023-04-18T08:06:34.588Z,11.30
2023-04-18T08:09:05.608Z,12.17
2023-04-18T08:11:34.751Z,9.93
2023-04-18T08:14:02.970Z,12.83
2023-04-18T08:16:32.388Z,12.50
2023-04-18T08:19:00.462Z,9.90
2023-04-18T08:21:28.448Z,8.60
2023-04-18T08:23:56.973Z,8.07
2023-04-18T08:26:25.240Z,9.17
2023-04-18T08:28:53.215Z,8.73
2023-04-18T08:31:21.214Z,9.17
2023-04-18T08:33:50.654Z,10.00
2023-04-18T08:36:18.949Z,7.57
2023-04-18T08:38:47.566Z,8.77
2023-04-18T08:41:21.772Z,7.27
2023-04-18T08:43:49.990Z,8.23
2023-04-18T08:46:18.984Z,7.43
2023-04-18T08:48:52.554Z,6.87
2023-04-18T08:51:21.502Z,7.10
2023-04-18T08:53:50.566Z,7.27
2023-04-18T08:56:22.282Z,9.93
2023-04-18T08:58:50.644Z,6.67
2023-04-18T09:01:19.402Z,8.90
2023-04-18T09:03:47.543Z,6.37
2023-04-18T09:06:19.332Z,6.37
2023-04-18T09:08:57.824Z,9.17
2023-04-18T09:11:28.932Z,7.27
2023-04-18T09:13:58.850Z,9.60
2023-04-18T09:16:29.197Z,10.03
2023-04-18T09:19:18.269Z,8.27
2023-04-18T09:21:48.842Z,9.17
2023-04-18T09:24:24.143Z,7.00
2023-04-18T09:26:53.838Z,7.30
2023-04-18T09:29:23.378Z,6.67
2023-04-18T09:31:59.772Z,6.77
2023-04-18T09:34:28.114Z,5.50
2023-04-18T09:37:11.455Z,8.23
2023-04-18T09:39:40.817Z,5.73
2023-04-18T09:42:10.451Z,9.77
2023-04-18T09:44:38.880Z,5.53
2023-04-18T09:47:07.875Z,5.23
2023-04-18T09:49:37.735Z,4.57
2023-04-18T09:52:10.352Z,6.40
2023-04-18T09:54:40.614Z,4.73
2023-04-18T09:57:13.942Z,6.10
2023-04-18T09:59:47.628Z,8.00
2023-04-18T10:02:21.142Z,6.33
2023-04-18T10:04:51.359Z,5.13
2023-04-18T10:07:21.807Z,4.87
2023-04-18T10:09:50.753Z,5.07
2023-04-18T10:12:19.445Z,4.60
2023-04-18T10:14:48.231Z,4.30
2023-04-18T10:17:18.092Z,4.60
2023-04-18T10:19:46.792Z,6.70
2023-04-18T10:22:17.679Z,3.73
2023-04-18T10:24:57.089Z,5.47
2023-04-18T10:27:56.988Z,5.80
2023-04-18T10:30:53.369Z,4.03
2023-04-18T10:33:30.345Z,4.17
2023-04-18T10:36:01.386Z,5.70
2023-04-18T10:38:29.753Z,5.70
2023-04-18T10:41:22.353Z,4.83
2023-04-18T10:44:19.333Z,4.50
2023-04-18T10:47:23.019Z,4.33
2023-04-18T10:49:59.001Z,5.27
2023-04-18T10:52:31.116Z,4.63
2023-04-18T10:55:18.429Z,6.40
2023-04-18T10:57:49.055Z,3.60
2023-04-18T11:00:18.948Z,5.00
2023-04-18T11:02:51.770Z,3.87
2023-04-18T11:05:22.328Z,4.07
2023-04-18T11:07:50.378Z,6.40
2023-04-18T11:10:20.105Z,3.63
2023-04-18T11:12:49.967Z,4.40
2023-04-18T11:15:21.679Z,4.50
2023-04-18T11:17:58.039Z,4.97
2023-04-18T11:20:26.807Z,5.70
2023-04-18T11:22:57.129Z,3.57
2023-04-18T11:25:29.380Z,3.70
2023-04-18T11:28:00.291Z,2.10
2023-04-18T11:30:28.842Z,3.27
2023-04-18T11:32:56.891Z,1.70
2023-04-18T11:35:25.050Z,2.77
2023-04-18T11:37:55.270Z,4.97
2023-04-18T11:40:25.160Z,2.43
2023-04-18T11:42:58.505Z,3.53
2023-04-18T11:45:28.039Z,2.13
2023-04-18T11:47:58.195Z,2.30
2023-04-18T11:50:27.349Z,2.93
2023-04-18T11:52:57.606Z,2.57
2023-04-18T11:55:27.147Z,2.97
2023-04-18T11:57:57.637Z,2.20
2023-04-18T12:00:37.354Z,2.53
2023-04-18T12:03:07.855Z,2.30
2023-04-18T12:05:38.307Z,2.80
2023-04-18T12:08:11.274Z,4.83
2023-04-18T12:10:48.068Z,2.03
2023-04-18T12:13:16.182Z,7.87
2023-04-18T12:15:47.071Z,5.43
2023-04-18T12:18:18.014Z,2.13
2023-04-18T12:20:49.917Z,1.80
2023-04-18T12:23:31.292Z,2.50
2023-04-18T12:26:03.715Z,2.67
2023-04-18T12:28:32.428Z,2.70
2023-04-18T12:31:01.942Z,2.93
2023-04-18T12:33:29.947Z,2.00
2023-04-18T12:35:57.948Z,2.80
2023-04-18T12:38:25.984Z,3.03
2023-04-18T12:40:54.331Z,2.83
2023-04-18T12:43:24.127Z,3.80
2023-04-18T12:45:52.144Z,3.47
2023-04-18T12:48:21.497Z,4.47
2023-04-18T12:50:49.519Z,4.97
2023-04-18T12:53:17.980Z,4.60
2023-04-18T12:55:45.991Z,3.97
2023-04-18T12:58:18.394Z,3.17
2023-04-18T13:00:46.496Z,5.10
2023-04-18T13:03:17.696Z,4.00
2023-04-18T13:05:47.371Z,3.70
2023-04-18T13:08:17.622Z,3.47
2023-04-18T13:10:49.494Z,4.90
2023-04-18T13:13:17.567Z,4.67
2023-04-18T13:15:45.600Z,3.40
2023-04-18T13:18:13.580Z,4.47
2023-04-18T13:20:41.560Z,3.97
2023-04-18T13:23:11.941Z,4.20
2023-04-18T13:25:40.201Z,3.23
2023-04-18T13:28:08.211Z,3.47
2023-04-18T13:30:38.399Z,3.23
2023-04-18T13:33:06.534Z,2.73
2023-04-18T13:35:34.560Z,4.13
2023-04-18T13:38:04.837Z,3.50
2023-04-18T13:40:34.176Z,4.23
2023-04-18T13:43:02.229Z,3.83
2023-04-18T13:45:30.218Z,3.43
2023-04-18T13:47:58.236Z,5.53
2023-04-18T13:50:26.222Z,3.70
2023-04-18T13:52:54.847Z,3.37
2023-04-18T13:55:22.893Z,4.50
2023-04-18T13:57:52.260Z,4.20
2023-04-18T14:00:21.073Z,4.17
2023-04-18T14:02:49.224Z,4.13
2023-04-18T14:05:17.500Z,3.50
2023-04-18T14:07:45.705Z,3.47
2023-04-18T14:10:15.731Z,3.97
2023-04-18T14:12:43.715Z,5.27
2023-04-18T14:15:14.647Z,4.03
2023-04-18T14:17:45.270Z,4.20
2023-04-18T14:20:15.531Z,4.80
2023-04-18T14:22:43.527Z,5.40
2023-04-18T14:25:11.606Z,3.90
2023-04-18T14:27:40.291Z,3.40
2023-04-18T14:30:09.981Z,4.00
2023-04-18T14:32:39.364Z,5.50
2023-04-18T14:35:10.987Z,4.70
2023-04-18T14:37:38.951Z,6.30
2023-04-18T14:40:08.339Z,3.97
2023-04-18T14:42:38.790Z,4.17
2023-04-18T14:45:08.329Z,6.10
2023-04-18T14:47:39.003Z,4.27
2023-04-18T14:50:13.041Z,4.37
2023-04-18T14:52:41.118Z,5.23
2023-04-18T14:55:10.712Z,3.90
2023-04-18T14:57:39.546Z,5.57
2023-04-18T15:00:11.382Z,3.80
2023-04-18T15:02:39.692Z,4.17
2023-04-18T15:05:10.884Z,5.13
2023-04-18T15:07:39.038Z,4.40
2023-04-18T15:10:08.669Z,4.53
2023-04-18T15:12:36.627Z,3.70
2023-04-18T15:15:07.484Z,4.87
2023-04-18T15:17:35.956Z,3.50
2023-04-18T15:20:07.008Z,4.30
2023-04-18T15:22:36.910Z,3.80
2023-04-18T15:25:07.622Z,4.63
2023-04-18T15:27:35.702Z,4.70
2023-04-18T15:30:03.906Z,4.03
2023-04-18T15:32:32.682Z,5.20
2023-04-18T15:35:00.813Z,5.20
2023-04-18T15:37:29.298Z,4.47
2023-04-18T15:39:58.670Z,4.87
2023-04-18T15:42:26.631Z,5.40
2023-04-18T15:44:54.601Z,4.90
2023-04-18T15:47:22.652Z,5.33
2023-04-18T15:49:50.714Z,4.17
2023-04-18T15:52:18.708Z,7.57
2023-04-18T15:54:46.736Z,4.77
2023-04-18T15:57:19.287Z,7.80
2023-04-18T15:59:47.259Z,5.73
2023-04-18T16:02:15.335Z,6.47
2023-04-18T16:04:43.424Z,6.47
2023-04-18T16:07:12.411Z,6.70
2023-04-18T16:09:40.460Z,5.80
2023-04-18T16:12:08.855Z,5.53
2023-04-18T16:14:38.219Z,6.10
2023-04-18T16:17:08.899Z,7.17
2023-04-18T16:19:38.273Z,5.90
2023-04-18T16:22:10.494Z,5.97
2023-04-18T16:24:39.179Z,6.10
2023-04-18T16:27:08.399Z,6.00
2023-04-18T16:29:37.765Z,5.67
2023-04-18T16:32:08.058Z,6.30
2023-04-18T16:34:38.556Z,6.60
2023-04-18T16:37:06.607Z,7.20
2023-04-18T16:39:34.734Z,9.30
2023-04-18T16:42:02.834Z,6.20
2023-04-18T16:44:31.073Z,6.97
2023-04-18T16:47:00.479Z,5.70
2023-04-18T16:49:28.536Z,7.93
2023-04-18T16:51:58.359Z,8.57
2023-04-18T16:54:26.383Z,6.63
2023-04-18T16:56:54.413Z,8.97
2023-04-18T16:59:22.428Z,11.17
2023-04-18T17:01:50.510Z,9.90
2023-04-18T17:04:20.016Z,9.93
2023-04-18T17:06:52.178Z,6.77
2023-04-18T17:09:20.507Z,7.83
2023-04-18T17:11:48.622Z,9.20
2023-04-18T17:14:19.720Z,6.73
2023-04-18T17:16:48.799Z,7.03
2023-04-18T17:19:18.974Z,84.20
2023-04-18T17:21:51.186Z,20.97
2023-04-18T17:24:22.344Z,41.27
2023-04-18T17:26:50.845Z,19.75
2023-04-18T17:29:19.490Z,17.73
2023-04-18T17:31:47.544Z,13.13
2023-04-18T17:34:15.563Z,12.93
2023-04-18T17:36:48.189Z,11.27
2023-04-18T17:39:19.080Z,12.20
2023-04-18T17:41:48.304Z,11.83
2023-04-18T17:44:19.096Z,14.50
2023-04-18T17:46:48.870Z,17.17
2023-04-18T17:49:18.006Z,19.23
2023-04-18T17:51:47.400Z,13.27
2023-04-18T17:54:15.492Z,12.77
2023-04-18T17:56:44.142Z,13.13
2023-04-18T17:59:12.304Z,13.53
2023-04-18T18:01:41.160Z,15.00
2023-04-18T18:04:12.349Z,12.30
2023-04-18T18:06:42.141Z,10.63
2023-04-18T18:09:12.655Z,12.47
2023-04-18T18:11:40.844Z,10.30
2023-04-18T18:14:08.892Z,11.70
2023-04-18T18:16:39.611Z,12.20
2023-04-18T18:19:08.302Z,13.47
2023-04-18T18:21:39.557Z,13.63
2023-04-18T18:24:07.857Z,14.93
2023-04-18T18:26:37.370Z,15.80
2023-04-18T18:29:09.315Z,12.53
2023-04-18T18:31:37.519Z,15.03
2023-04-18T18:34:05.925Z,14.53
2023-04-18T18:36:36.288Z,16.73
2023-04-18T18:39:04.571Z,18.70
2023-04-18T18:41:32.566Z,14.90
2023-04-18T18:44:01.953Z,15.03
2023-04-18T18:46:29.966Z,12.73
2023-04-18T18:48:58.048Z,14.17
2023-04-18T18:51:26.451Z,14.67
2023-04-18T18:53:54.516Z,14.30
2023-04-18T18:56:22.833Z,12.47
2023-04-18T18:58:50.900Z,14.03
2023-04-18T19:01:24.704Z,15.93
2023-04-18T19:03:54.345Z,20.60
2023-04-18T19:06:28.720Z,22.07
2023-04-18T19:09:02.256Z,18.23
2023-04-18T19:11:33.279Z,16.27
2023-04-18T19:14:01.386Z,15.93
2023-04-18T19:16:32.472Z,19.10
2023-04-18T19:19:03.630Z,17.50
2023-04-18T19:21:31.662Z,14.23
2023-04-18T19:24:02.144Z,13.77
2023-04-18T19:26:30.486Z,15.03
2023-04-18T19:29:02.585Z,12.47
2023-04-18T19:31:32.131Z,12.70
2023-04-18T19:34:08.004Z,12.27
2023-04-18T19:36:36.357Z,13.10
2023-04-18T19:39:09.672Z,11.50
2023-04-18T19:41:37.764Z,10.90
2023-04-18T19:44:08.318Z,9.60
2023-04-18T19:46:40.877Z,10.33
2023-04-18T19:49:10.014Z,9.60
2023-04-18T19:51:41.111Z,9.47
2023-04-18T19:54:11.795Z,9.50
2023-04-18T19:56:42.133Z,10.30
2023-04-18T19:59:13.665Z,12.07
2023-04-18T20:01:45.117Z,9.97
2023-04-18T20:04:17.182Z,14.07
2023-04-18T20:06:47.250Z,11.00
2023-04-18T20:09:18.377Z,12.50
2023-04-18T20:11:48.414Z,11.47
2023-04-18T20:14:19.415Z,13.40
2023-04-18T20:16:49.951Z,11.93
2023-04-18T20:19:19.639Z,11.33
2023-04-18T20:21:51.309Z,13.57
2023-04-18T20:24:21.397Z,10.50
2023-04-18T20:26:49.456Z,11.80
2023-04-18T20:29:17.795Z,13.13
2023-04-18T20:31:46.023Z,14.03
2023-04-18T20:34:15.817Z,13.93
2023-04-18T20:36:43.859Z,14.23
2023-04-18T20:39:13.371Z,15.53
2023-04-18T20:41:46.943Z,14.47
2023-04-18T20:44:19.068Z,14.37
2023-04-18T20:46:48.240Z,13.37
2023-04-18T20:49:17.748Z,14.87
2023-04-18T20:51:48.645Z,14.43
2023-04-18T20:54:16.795Z,16.80
2023-04-18T20:56:44.945Z,16.17
2023-04-18T20:59:12.992Z,17.80
2023-04-18T21:01:41.177Z,15.57
2023-04-18T21:04:09.636Z,16.37
2023-04-18T21:06:39.082Z,15.27
2023-04-18T21:09:07.339Z,15.43
2023-04-18T21:11:35.593Z,15.07
2023-04-18T21:14:06.512Z,18.33
2023-04-18T21:16:35.933Z,14.70
2023-04-18T21:19:03.999Z,14.37
2023-04-18T21:21:34.447Z,14.37
2023-04-18T21:24:04.119Z,15.07
2023-04-18T21:26:32.096Z,15.50
2023-04-18T21:29:01.390Z,15.87
2023-04-18T21:31:31.677Z,16.93
2023-04-18T21:34:01.564Z,16.80
2023-04-18T21:36:30.645Z,17.83
2023-04-18T21:39:00.371Z,16.27
2023-04-18T21:41:29.748Z,17.00
2023-04-18T21:43:57.997Z,15.33
2023-04-18T21:46:26.515Z,16.83
2023-04-18T21:48:56.490Z,16.33
2023-04-18T21:51:24.467Z,16.57
2023-04-18T21:53:54.349Z,17.07
2023-04-18T21:56:22.673Z,15.97
2023-04-18T21:58:52.025Z,16.30
2023-04-18T22:01:20.073Z,16.73
2023-04-18T22:03:48.249Z,15.83
2023-04-18T22:06:17.700Z,17.00
2023-04-18T22:08:48.218Z,16.00
2023-04-18T22:11:16.702Z,15.90
2023-04-18T22:13:45.908Z,16.83
2023-04-18T22:16:17.684Z,17.63
2023-04-18T22:18:48.785Z,16.63
2023-04-18T22:21:16.866Z,17.50
2023-04-18T22:23:44.806Z,17.00
2023-04-18T22:26:12.771Z,17.03
2023-04-18T22:28:40.847Z,18.43
2023-04-18T22:31:08.838Z,17.03
2023-04-18T22:33:38.493Z,18.90
2023-04-18T22:36:07.211Z,17.80
2023-04-18T22:38:35.482Z,18.10
2023-04-18T22:41:03.468Z,18.83
2023-04-18T22:43:31.542Z,17.50
2023-04-18T22:45:59.564Z,18.63
2023-04-18T22:48:27.539Z,18.97
2023-04-18T22:50:56.906Z,20.23
2023-04-18T22:53:25.125Z,18.80
2023-04-18T22:55:53.090Z,17.87
2023-04-18T22:58:21.041Z,18.00
2023-04-18T23:00:49.010Z,20.20
2023-04-18T23:03:17.066Z,19.33
2023-04-18T23:05:45.170Z,19.00
2023-04-18T23:08:14.569Z,18.53
2023-04-18T23:10:42.536Z,18.97
2023-04-18T23:13:10.485Z,17.93
2023-04-18T23:15:38.477Z,20.20
2023-04-18T23:18:06.604Z,16.70
2023-04-18T23:20:37.362Z,19.77
2023-04-18T23:23:05.859Z,17.80
2023-04-18T23:25:35.300Z,17.73
2023-04-18T23:28:03.266Z,19.73
2023-04-18T23:30:31.374Z,16.83
2023-04-18T23:32:59.403Z,17.77
2023-04-18T23:35:27.374Z,16.93
2023-04-18T23:37:56.984Z,19.10
2023-04-18T23:40:25.230Z,17.43
2023-04-18T23:42:54.577Z,17.10
2023-04-18T23:45:24.264Z,18.33
2023-04-18T23:47:53.840Z,18.73
2023-04-18T23:50:21.889Z,17.50
2023-04-18T23:52:50.138Z,17.90
2023-04-18T23:55:18.458Z,19.23
2023-04-18T23:57:46.417Z,19.83
